Time;durP1;ratioP1;P1;durP2;ratioP2;P2;SDS_P1;SDS_P2;PMS_P1;PMS_P2;Temp;Humidity;BMP_temperature;BMP_pressure;BME280_temperature;BME280_humidity;BME280_pressure;Samples;Min_cycle;Max_cycle;Signal;HPM_P1;HPM_P2
2021/12/31 00:00:40;;;;;;;;;15.00;14.00;;;;;12.21;84.34;101839.25;5036812;28;47000;-53
2021/12/31 00:03:05;;;;;;;;;17.67;14.67;;;;;12.18;84.17;101836.84;5037237;28;45389;-52
2021/12/31 00:05:31;;;;;;;;;14.00;13.00;;;;;12.18;84.26;101831.53;5037038;28;45174;-52
2021/12/31 00:07:56;;;;;;;;;15.33;14.00;;;;;12.12;84.40;101826.69;5037015;28;45357;-51
2021/12/31 00:10:22;;;;;;;;;15.67;13.00;;;;;12.14;84.04;101829.25;5036696;28;47037;-51
2021/12/31 00:12:47;;;;;;;;;22.00;17.33;;;;;12.12;84.18;101834.69;5036725;28;45361;-52
2021/12/31 00:15:13;;;;;;;;;18.67;15.33;;;;;12.08;84.00;101830.59;5036884;28;45793;-52
2021/12/31 00:17:39;;;;;;;;;29.00;18.33;;;;;12.05;83.80;101828.22;5037000;28;45191;-50
2021/12/31 00:20:12;;;;;;;;;13.00;11.00;;;;;12.02;84.48;101828.47;5030363;28;46295;-53
2021/12/31 00:25:22;;;;;;;;;19.00;13.67;;;;;11.97;84.26;101818.19;5036731;28;45471;-52
2021/12/31 00:27:48;;;;;;;;;18.00;15.33;;;;;11.95;84.13;101814.78;5036584;28;45248;-52
2021/12/31 00:30:14;;;;;;;;;22.00;16.33;;;;;11.91;84.78;101813.34;5036418;28;46166;-51
2021/12/31 00:32:40;;;;;;;;;23.67;18.33;;;;;11.89;85.48;101806.47;5036558;28;45224;-52
2021/12/31 00:35:07;;;;;;;;;19.33;15.00;;;;;11.84;84.65;101808.66;5036453;28;45282;-52
2021/12/31 00:37:35;;;;;;;;;31.33;21.00;;;;;11.83;84.84;101807.81;5036924;28;45401;-54
2021/12/31 00:40:04;;;;;;;;;22.33;19.00;;;;;11.80;84.96;101802.72;5036356;28;46403;-53
2021/12/31 00:42:30;;;;;;;;;21.00;18.67;;;;;11.79;85.08;101800.16;5036165;28;45279;-52
2021/12/31 00:44:55;;;;;;;;;26.33;25.00;;;;;11.68;84.96;101785.09;5036453;28;45317;-50
2021/12/31 00:47:21;;;;;;;;;22.00;18.00;;;;;11.76;84.79;101803.13;5036883;28;45457;-51
2021/12/31 00:49:46;;;;;;;;;20.00;15.67;;;;;11.73;84.65;101799.72;5039798;28;46401;-52
2021/12/31 00:52:12;;;;;;;;;28.00;19.33;;;;;11.71;85.28;101807.00;5039839;28;45297;-50
2021/12/31 00:54:38;;;;;;;;;24.33;23.67;;;;;11.70;84.88;101807.97;5039658;28;45332;-49
2021/12/31 00:57:05;;;;;;;;;23.00;18.67;;;;;11.67;84.94;101802.03;5039996;28;45340;-51
2021/12/31 00:59:32;;;;;;;;;24.00;19.00;;;;;11.57;85.40;101796.63;5039490;28;46128;-53
2021/12/31 01:02:05;;;;;;;;;14.33;13.00;;;;;11.67;84.90;101815.38;5039768;28;45427;-52
2021/12/31 01:04:32;;;;;;;;;18.67;15.00;;;;;11.64;84.79;101804.97;5039785;28;45288;-52
2021/12/31 01:06:59;;;;;;;;;13.67;13.67;;;;;11.65;84.65;101802.19;5039760;28;45484;-53
2021/12/31 01:09:25;;;;;;;;;17.00;15.00;;;;;11.62;85.04;101801.56;5039590;28;47241;-50
2021/12/31 01:11:51;;;;;;;;;20.33;13.00;;;;;11.61;84.75;101811.41;5039294;28;45323;-52
2021/12/31 01:14:38;;;;;;;;;12.00;11.00;;;;;11.59;84.54;101794.72;5039325;28;45317;-51
2021/12/31 01:17:08;;;;;;;;;10.33;9.33;;;;;11.57;84.21;101793.13;5039566;28;45515;-53
2021/12/31 01:19:45;;;;;;;;;15.33;12.00;;;;;11.54;84.65;101788.03;5039120;28;45329;-53
2021/12/31 01:22:14;;;;;;;;;13.67;13.67;;;;;11.49;84.96;101775.94;5039356;28;45286;-54
2021/12/31 01:24:39;;;;;;;;;16.00;12.33;;;;;11.46;85.01;101775.34;5039295;28;45373;-51
2021/12/31 01:27:05;;;;;;;;;18.00;10.00;;;;;11.44;85.25;101782.63;5039560;28;45373;-52
2021/12/31 01:29:31;;;;;;;;;19.33;12.67;;;;;11.39;85.14;101775.03;5039072;28;46331;-54
2021/12/31 01:31:57;;;;;;;;;17.00;13.67;;;;;11.39;85.25;101776.84;5037860;28;45376;-52
2021/12/31 01:34:22;;;;;;;;;18.00;11.00;;;;;11.38;85.01;101778.69;5039141;28;46127;-52
2021/12/31 01:36:48;;;;;;;;;19.67;14.33;;;;;11.37;84.85;101774.28;5039411;28;45206;-51
2021/12/31 01:39:13;;;;;;;;;12.33;12.33;;;;;11.37;85.03;101768.97;5039078;28;46403;-52
2021/12/31 01:41:40;;;;;;;;;14.67;12.33;;;;;11.36;84.86;101769.94;5039117;28;45266;-51
2021/12/31 01:44:06;;;;;;;;;18.00;14.67;;;;;11.33;85.19;101780.00;5039085;28;45664;-52
2021/12/31 01:46:33;;;;;;;;;20.67;14.00;;;;;11.31;84.73;101784.63;5039200;28;45426;-51
2021/12/31 01:49:02;;;;;;;;;18.67;12.33;;;;;11.18;85.25;101769.66;5038687;28;46327;-56
2021/12/31 01:51:28;;;;;;;;;15.00;12.67;;;;;11.26;85.07;101792.16;5038826;28;45179;-53
2021/12/31 01:53:54;;;;;;;;;16.67;13.00;;;;;11.27;85.23;101797.34;5038917;28;45155;-53
2021/12/31 01:56:20;;;;;;;;;15.67;12.67;;;;;11.29;84.83;101802.53;5039153;28;45279;-51
2021/12/31 01:58:54;;;;;;;;;11.33;6.67;;;;;11.26;85.00;101803.66;5038081;28;45540;-51
2021/12/31 02:01:20;;;;;;;;;11.67;11.67;;;;;11.29;85.02;101810.53;5038638;28;45302;-52
2021/12/31 02:03:46;;;;;;;;;17.67;12.33;;;;;11.30;84.63;101814.91;5038865;28;45389;-53
2021/12/31 02:06:11;;;;;;;;;16.33;11.00;;;;;11.25;84.56;101791.31;5039251;28;45411;-51
2021/12/31 02:08:36;;;;;;;;;15.33;12.00;;;;;11.33;84.34;101804.81;5038582;28;47304;-51
2021/12/31 02:11:02;;;;;;;;;15.67;13.00;;;;;11.35;84.38;101810.03;5038544;28;45349;-52
2021/12/31 02:13:28;;;;;;;;;12.67;12.00;;;;;11.33;83.89;101802.16;5038634;28;45372;-53
2021/12/31 02:15:54;;;;;;;;;14.33;13.00;;;;;11.27;84.11;101785.84;5020411;28;45527;-53
2021/12/31 02:18:20;;;;;;;;;13.67;11.00;;;;;11.24;84.07;101793.09;5038270;28;47088;-51
2021/12/31 02:20:47;;;;;;;;;10.00;10.00;;;;;11.24;83.82;101793.09;5038433;28;45381;-51
2021/12/31 02:23:25;;;;;;;;;11.67;8.33;;;;;11.24;84.07;101798.44;5038578;28;45323;-50
2021/12/31 02:25:54;;;;;;;;;15.00;12.67;;;;;11.22;83.79;101795.06;5038646;28;45495;-52
2021/12/31 02:28:20;;;;;;;;;14.33;11.00;;;;;11.21;83.81;101795.19;5038161;28;47102;-48
2021/12/31 02:30:47;;;;;;;;;17.33;11.33;;;;;11.18;83.92;101790.97;5038024;28;45319;-52
2021/12/31 02:33:13;;;;;;;;;12.33;9.67;;;;;11.15;83.68;101782.38;5038539;28;45345;-53
2021/12/31 02:35:39;;;;;;;;;10.67;8.67;;;;;11.14;83.75;101780.69;5038298;28;45398;-52
2021/12/31 02:38:06;;;;;;;;;16.33;11.67;;;;;11.15;83.93;101785.03;5038150;28;45343;-51
2021/12/31 02:40:33;;;;;;;;;10.33;10.33;;;;;11.12;83.87;101778.13;5038080;28;45368;-51
2021/12/31 02:42:59;;;;;;;;;13.67;12.67;;;;;11.09;83.79;101774.88;5038155;28;45370;-51
2021/12/31 02:45:31;;;;;;;;;13.67;11.33;;;;;11.06;83.79;101767.97;5038207;28;45386;-52
2021/12/31 02:48:00;;;;;;;;;16.00;12.33;;;;;11.05;83.71;101760.97;5037768;28;46289;-52
2021/12/31 02:50:31;;;;;;;;;15.00;11.33;;;;;11.02;84.02;101761.22;5037829;28;45334;-50
2021/12/31 02:52:57;;;;;;;;;11.33;10.33;;;;;11.00;83.73;101768.50;5038009;28;45366;-53
2021/12/31 02:55:24;;;;;;;;;13.00;11.33;;;;;11.00;83.96;101771.16;5038042;28;45414;-51
2021/12/31 02:57:51;;;;;;;;;15.00;13.33;;;;;11.00;83.67;101763.16;5037631;28;45436;-50
2021/12/31 03:00:16;;;;;;;;;22.33;17.67;;;;;10.97;83.55;101750.09;5037760;28;45226;-54
2021/12/31 03:02:43;;;;;;;;;30.67;16.67;;;;;10.95;83.49;101746.69;5037777;28;45400;-53
2021/12/31 03:05:09;;;;;;;;;21.67;19.33;;;;;10.91;83.72;101748.78;5038138;28;45338;-52
2021/12/31 03:07:36;;;;;;;;;3.33;2.00;;;;;10.89;83.66;101744.56;5019644;28;46024;-52
2021/12/31 03:10:03;;;;;;;;;27.00;22.33;;;;;10.88;84.25;101750.84;5037491;28;45354;-53
2021/12/31 03:12:28;;;;;;;;;18.00;18.00;;;;;10.87;83.84;101735.81;5037627;28;45372;-51
2021/12/31 03:14:54;;;;;;;;;8.67;8.67;;;;;10.83;84.30;101740.56;5037592;28;45521;-53
2021/12/31 03:17:20;;;;;;;;;18.33;14.00;;;;;10.83;83.58;101739.69;5037570;28;45925;-52
2021/12/31 03:19:46;;;;;;;;;16.00;13.33;;;;;10.81;83.82;101747.81;5037315;28;45437;-52
2021/12/31 03:22:11;;;;;;;;;13.33;11.00;;;;;10.79;83.89;101756.88;5037710;28;45333;-53
2021/12/31 03:24:37;;;;;;;;;15.67;13.00;;;;;10.79;83.92;101760.44;5020157;28;45288;-53
2021/12/31 03:27:03;;;;;;;;;19.00;11.67;;;;;10.80;83.87;101771.91;5037368;28;45319;-54
2021/12/31 03:29:28;;;;;;;;;21.00;16.33;;;;;10.81;83.88;101770.94;5037306;28;45247;-52
2021/12/31 03:31:54;;;;;;;;;18.33;11.33;;;;;10.81;83.89;101779.75;5037363;28;45280;-54
2021/12/31 03:34:20;;;;;;;;;12.33;9.33;;;;;10.87;83.18;101799.72;5037455;28;45325;-52
2021/12/31 03:36:46;;;;;;;;;12.33;11.00;;;;;10.90;83.42;101802.13;5019751;28;45325;-53
2021/12/31 03:39:12;;;;;;;;;15.67;9.33;;;;;10.92;83.42;101814.38;5037180;28;45448;-53
2021/12/31 03:41:38;;;;;;;;;14.33;13.67;;;;;10.93;83.37;101825.84;5037994;28;45271;-53
2021/12/31 03:44:05;;;;;;;;;14.00;12.00;;;;;10.93;82.98;101825.84;5037747;28;45358;-49
2021/12/31 03:46:30;;;;;;;;;11.00;9.33;;;;;10.94;83.06;101815.06;5037228;28;46203;-52
2021/12/31 03:48:56;;;;;;;;;8.67;8.00;;;;;10.95;82.34;101803.44;5037218;28;45286;-51
2021/12/31 03:51:21;;;;;;;;;14.67;11.67;;;;;10.94;82.07;101790.28;5037950;28;45753;-50
2021/12/31 03:53:47;;;;;;;;;12.00;8.33;;;;;10.91;81.98;101783.41;5038436;28;45297;-49
2021/12/31 03:56:12;;;;;;;;;9.67;6.00;;;;;10.94;82.20;101768.97;5037379;28;46503;-51
2021/12/31 03:58:37;;;;;;;;;10.00;10.00;;;;;10.89;81.85;101753.38;5037448;28;45280;-51
2021/12/31 04:01:03;;;;;;;;;7.67;6.00;;;;;10.96;81.87;101767.91;5037228;28;45303;-53
2021/12/31 04:03:29;;;;;;;;;6.33;6.00;;;;;10.96;81.37;101767.06;5037460;28;45271;-53
2021/12/31 04:05:54;;;;;;;;;4.00;4.00;;;;;10.99;81.68;101764.13;5037015;28;45464;-53
2021/12/31 04:08:20;;;;;;;;;7.00;7.00;;;;;11.00;81.55;101755.19;5036942;28;45405;-50
2021/12/31 04:10:46;;;;;;;;;11.00;8.00;;;;;10.95;81.38;101741.38;5038334;28;45324;-49
2021/12/31 04:13:11;;;;;;;;;10.67;6.33;;;;;10.99;81.46;101745.47;5039493;28;45448;-53
2021/12/31 04:15:37;;;;;;;;;7.00;7.00;;;;;10.96;81.47;101745.75;5038197;28;45452;-50
2021/12/31 04:18:02;;;;;;;;;12.00;7.33;;;;;10.95;81.14;101747.53;5038181;28;45474;-52
2021/12/31 04:20:40;;;;;;;;;11.33;9.33;;;;;10.92;81.32;101744.31;5038261;28;45385;-52
2021/12/31 04:23:12;;;;;;;;;7.33;5.67;;;;;10.89;81.13;101744.56;5039800;28;45368;-53
2021/12/31 04:25:38;;;;;;;;;7.33;7.00;;;;;10.87;81.39;101754.47;5041767;28;46375;-51
2021/12/31 04:28:07;;;;;;;;;11.00;8.00;;;;;10.85;81.28;101749.28;5023337;28;45453;-49
2021/12/31 04:30:32;;;;;;;;;8.67;6.00;;;;;10.83;81.29;101745.03;5040575;28;45176;-52
2021/12/31 04:32:58;;;;;;;;;10.33;8.67;;;;;10.70;81.22;101727.41;5040612;28;45299;-53
2021/12/31 04:35:24;;;;;;;;;10.33;8.67;;;;;10.79;81.24;101732.94;5040133;28;46050;-53
2021/12/31 04:37:49;;;;;;;;;10.33;7.67;;;;;10.72;81.55;101725.47;5040127;28;45242;-52
2021/12/31 04:40:15;;;;;;;;;12.67;10.00;;;;;10.72;81.95;101728.13;5040297;28;45320;-50
2021/12/31 04:42:44;;;;;;;;;7.00;7.00;;;;;10.71;81.61;101726.44;5041071;28;45164;-53
2021/12/31 04:45:11;;;;;;;;;10.67;7.33;;;;;10.69;81.61;101723.03;5040267;28;46663;-51
2021/12/31 04:47:37;;;;;;;;;9.33;7.67;;;;;10.65;81.66;101721.59;5039823;28;45361;-51
2021/12/31 04:50:04;;;;;;;;;10.67;9.00;;;;;10.59;81.74;101703.47;5039919;28;45464;-52
2021/12/31 04:52:29;;;;;;;;;11.00;11.00;;;;;10.57;81.52;101702.72;5040254;28;45374;-51
2021/12/31 04:54:54;;;;;;;;;8.00;8.00;;;;;10.58;81.91;101714.25;5039568;28;45707;-52
2021/12/31 04:57:23;;;;;;;;;10.00;6.67;;;;;10.55;82.09;101722.47;5039823;28;45341;-52
2021/12/31 04:59:48;;;;;;;;;13.00;9.67;;;;;10.53;82.15;101735.88;5039893;28;45414;-51
2021/12/31 05:02:14;;;;;;;;;12.00;10.33;;;;;10.51;82.05;101735.16;5039719;28;45258;-53
2021/12/31 05:04:39;;;;;;;;;12.00;12.00;;;;;10.43;82.21;101735.78;5039690;28;46922;-53
2021/12/31 05:07:04;;;;;;;;;10.00;10.00;;;;;10.44;82.41;101742.78;5039664;28;45350;-52
2021/12/31 05:09:30;;;;;;;;;8.67;8.67;;;;;10.44;82.37;101742.78;5039803;28;45369;-52
2021/12/31 05:11:55;;;;;;;;;11.00;8.00;;;;;10.44;82.51;101740.09;5040137;28;45322;-53
2021/12/31 05:14:22;;;;;;;;;16.33;12.33;;;;;10.43;82.67;101742.91;5039313;28;45422;-51
2021/12/31 05:16:47;;;;;;;;;8.33;6.33;;;;;10.41;82.29;101737.72;5039390;28;45290;-50
2021/12/31 05:19:12;;;;;;;;;9.33;7.00;;;;;10.43;82.41;101737.59;5039401;28;45718;-53
2021/12/31 05:21:38;;;;;;;;;11.33;7.67;;;;;10.43;82.09;101737.59;5039773;28;45404;-51
2021/12/31 05:24:05;;;;;;;;;12.00;11.33;;;;;10.05;82.28;101676.75;5039371;28;46220;-53
2021/12/31 05:26:30;;;;;;;;;11.00;8.00;;;;;10.38;82.22;101740.59;5039521;28;45364;-54
2021/12/31 05:28:56;;;;;;;;;13.00;8.00;;;;;10.36;82.11;101734.56;5039415;28;45347;-52
2021/12/31 05:31:21;;;;;;;;;11.00;11.00;;;;;10.34;82.13;101725.88;5039463;28;45154;-54
2021/12/31 05:33:46;;;;;;;;;92.25;66.50;;;;;10.32;82.22;101725.13;5038362;28;46398;-51
2021/12/31 05:36:12;;;;;;;;;211.75;156.25;;;;;10.27;82.26;101721.13;5039124;28;45436;-49
2021/12/31 05:38:38;;;;;;;;;206.75;165.75;;;;;10.30;82.37;101718.25;5039211;28;45416;-53
2021/12/31 05:41:04;;;;;;;;;227.00;175.50;;;;;10.27;82.23;101711.34;5039576;28;45321;-51
2021/12/31 05:43:30;;;;;;;;;136.00;113.67;;;;;10.29;82.10;101719.22;5039036;28;46149;-53
2021/12/31 05:45:55;;;;;;;;;66.50;49.00;;;;;10.26;81.87;101714.13;5038839;28;45500;-52
2021/12/31 05:48:20;;;;;;;;;56.25;37.75;;;;;10.24;81.82;101706.25;5039105;28;45395;-51
2021/12/31 05:50:46;;;;;;;;;28.33;21.33;;;;;10.20;81.82;101702.16;5039342;28;45436;-53
2021/12/31 05:53:11;;;;;;;;;20.00;13.00;;;;;10.17;82.44;101705.03;5021077;28;46007;-53
2021/12/31 05:55:36;;;;;;;;;15.00;11.00;;;;;10.10;82.49;101690.53;5038967;28;45313;-52
2021/12/31 05:58:02;;;;;;;;;19.00;11.00;;;;;10.14;82.40;101690.16;5039028;28;45353;-52
2021/12/31 06:00:28;;;;;;;;;17.00;11.67;;;;;10.13;82.21;101683.16;5039202;28;45564;-53
2021/12/31 06:02:55;;;;;;;;;13.67;10.33;;;;;10.04;82.11;101675.06;5038603;28;45389;-51
2021/12/31 06:05:23;;;;;;;;;10.00;8.00;;;;;10.00;82.57;101696.56;5020977;28;45409;-53
2021/12/31 06:07:49;;;;;;;;;9.00;9.00;;;;;10.05;82.67;101700.69;5038939;28;45410;-53
2021/12/31 06:10:14;;;;;;;;;7.33;7.33;;;;;10.05;82.41;101706.00;5037453;28;45658;-53
2021/12/31 06:12:41;;;;;;;;;12.33;9.67;;;;;10.09;82.34;101716.28;5020696;28;45900;-51
2021/12/31 06:15:09;;;;;;;;;12.00;10.00;;;;;10.10;82.18;101717.09;5038497;28;45426;-53
2021/12/31 06:17:34;;;;;;;;;10.33;10.33;;;;;10.02;82.59;101712.38;5038420;28;45412;-50
2021/12/31 06:20:00;;;;;;;;;10.67;10.33;;;;;10.11;82.34;101729.44;5038774;28;45320;-54
2021/12/31 06:22:26;;;;;;;;;12.00;8.00;;;;;10.11;82.19;101729.44;5038359;28;45295;-58
2021/12/31 06:24:51;;;;;;;;;13.00;10.33;;;;;10.11;81.94;101732.09;5038635;28;45253;-54
2021/12/31 06:27:17;;;;;;;;;10.67;7.67;;;;;10.13;81.92;101736.34;5038515;28;45311;-53
2021/12/31 06:29:43;;;;;;;;;9.33;7.67;;;;;10.14;82.06;101726.53;5038630;28;45407;-53
2021/12/31 06:32:09;;;;;;;;;16.00;11.00;;;;;10.15;82.15;101722.91;5037912;28;46312;-52
2021/12/31 06:34:34;;;;;;;;;9.00;7.00;;;;;10.13;82.00;101720.38;5020224;28;45965;-53
2021/12/31 06:36:59;;;;;;;;;10.00;10.00;;;;;10.15;81.93;101709.63;5038629;28;45180;-50
2021/12/31 06:39:26;;;;;;;;;7.00;7.00;;;;;10.15;81.56;101717.59;5038546;28;45394;-53
2021/12/31 06:41:52;;;;;;;;;9.67;7.00;;;;;10.18;81.95;101726.19;5038223;28;45429;-53
2021/12/31 06:44:17;;;;;;;;;10.00;8.00;;;;;10.20;81.91;101721.59;5038174;28;45251;-53
2021/12/31 06:46:43;;;;;;;;;9.00;7.33;;;;;10.22;81.54;101714.34;5037762;28;45432;-52
2021/12/31 06:49:08;;;;;;;;;15.00;10.67;;;;;10.23;81.64;101715.19;5038272;28;45168;-53
2021/12/31 06:51:33;;;;;;;;;9.00;8.00;;;;;10.26;81.77;101725.63;5037989;28;46187;-51
2021/12/31 06:53:59;;;;;;;;;10.00;9.67;;;;;10.24;81.58;101728.41;5038034;28;45378;-50
2021/12/31 06:56:24;;;;;;;;;12.67;10.00;;;;;10.29;81.53;101743.16;5036626;28;45365;-52
2021/12/31 06:58:50;;;;;;;;;5.67;5.67;;;;;10.28;81.67;101744.97;5038127;28;45250;-51
2021/12/31 07:01:15;;;;;;;;;8.33;8.33;;;;;10.32;81.13;101740.22;5037963;28;45496;-52
2021/12/31 07:03:40;;;;;;;;;7.67;7.67;;;;;10.32;81.07;101727.78;5037832;28;45239;-52
2021/12/31 07:06:06;;;;;;;;;13.00;11.00;;;;;10.29;81.12;101708.59;5037818;28;45280;-53
2021/12/31 07:08:31;;;;;;;;;10.67;9.33;;;;;10.22;81.30;101698.38;5038095;28;45292;-54
2021/12/31 07:10:56;;;;;;;;;7.00;7.00;;;;;10.20;81.36;101726.09;5037601;28;46079;-51
2021/12/31 07:13:22;;;;;;;;;10.33;7.00;;;;;10.19;81.77;101749.13;5037716;28;45311;-54
2021/12/31 07:15:50;;;;;;;;;10.33;10.00;;;;;10.18;81.42;101754.59;5037649;28;45394;-51
2021/12/31 07:18:20;;;;;;;;;9.33;7.00;;;;;10.18;81.58;101757.25;5037571;28;45372;-54
2021/12/31 07:20:46;;;;;;;;;10.67;7.67;;;;;10.17;81.67;101755.56;5037408;28;47407;-54
2021/12/31 07:23:15;;;;;;;;;12.00;9.33;;;;;10.18;81.61;101739.47;5037365;28;45346;-53
2021/12/31 07:25:40;;;;;;;;;15.33;11.00;;;;;10.19;81.61;101749.13;5037616;28;45379;-53
2021/12/31 07:28:08;;;;;;;;;14.00;11.00;;;;;10.18;81.34;101760.75;5037723;28;45295;-53
2021/12/31 07:30:34;;;;;;;;;11.33;7.00;;;;;10.06;81.54;101743.09;5037237;28;46104;-53
2021/12/31 07:32:59;;;;;;;;;14.00;12.00;;;;;10.16;81.16;101745.91;5037168;28;45373;-53
2021/12/31 07:35:25;;;;;;;;;6.00;4.33;;;;;10.15;81.23;101750.34;5037391;28;45222;-54
2021/12/31 07:37:56;;;;;;;;;10.00;10.00;;;;;10.16;81.91;101765.34;5037575;28;45325;-53
2021/12/31 07:40:28;;;;;;;;;10.00;10.00;;;;;10.18;81.67;101779.34;5036903;28;46597;-53
2021/12/31 07:42:53;;;;;;;;;12.00;11.00;;;;;10.14;81.47;101774.41;5037206;28;45442;-52
2021/12/31 07:45:20;;;;;;;;;11.00;7.00;;;;;10.24;81.41;101768.28;5037312;28;45398;-53
2021/12/31 07:47:45;;;;;;;;;9.00;9.00;;;;;10.26;81.02;101754.03;5037383;28;45266;-52
2021/12/31 07:50:11;;;;;;;;;18.00;12.67;;;;;10.22;81.37;101753.38;5036998;28;46254;-53
2021/12/31 07:52:37;;;;;;;;;16.33;8.67;;;;;10.10;80.80;101723.28;5036942;28;45726;-53
2021/12/31 07:55:03;;;;;;;;;9.00;7.33;;;;;10.19;81.29;101746.47;5037069;28;45242;-53
2021/12/31 07:57:28;;;;;;;;;16.33;11.00;;;;;10.19;81.29;101746.47;5036137;28;45415;-53
2021/12/31 07:59:53;;;;;;;;;15.33;11.33;;;;;10.17;81.44;101752.91;5036969;28;45258;-54
2021/12/31 08:02:19;;;;;;;;;12.00;10.00;;;;;10.19;81.22;101758.94;5036878;28;45412;-52
2021/12/31 08:04:44;;;;;;;;;12.33;9.00;;;;;10.17;81.32;101759.06;5037053;28;45392;-56
2021/12/31 08:07:09;;;;;;;;;15.00;14.00;;;;;10.19;81.46;101753.63;5037277;28;45370;-54
2021/12/31 08:09:35;;;;;;;;;14.00;13.00;;;;;10.22;80.72;101745.41;5036913;28;46058;-53
2021/12/31 08:12:00;;;;;;;;;12.67;10.00;;;;;10.26;81.13;101762.00;5036903;28;45363;-53
2021/12/31 08:14:25;;;;;;;;;14.33;8.00;;;;;10.30;80.95;101760.81;5036616;28;45322;-53
2021/12/31 08:16:51;;;;;;;;;13.00;8.67;;;;;10.35;80.60;101763.94;5037109;28;45442;-53
2021/12/31 08:19:16;;;;;;;;;15.33;11.00;;;;;10.37;80.48;101770.84;5036204;28;46268;-53
2021/12/31 08:21:41;;;;;;;;;13.33;10.33;;;;;10.45;80.21;101780.88;5036975;28;45416;-52
2021/12/31 08:24:07;;;;;;;;;15.33;11.00;;;;;10.53;80.07;101785.59;5036952;28;45357;-51
2021/12/31 08:26:32;;;;;;;;;18.33;12.00;;;;;10.62;79.93;101801.69;5036873;28;45455;-52
2021/12/31 08:28:57;;;;;;;;;12.33;11.00;;;;;10.64;79.32;101805.06;5036760;28;46058;-52
2021/12/31 08:31:23;;;;;;;;;11.00;9.67;;;;;10.74;78.96;101815.81;5036539;28;45429;-51
2021/12/31 08:33:48;;;;;;;;;11.00;9.33;;;;;10.81;79.43;101806.38;5036650;28;45325;-52
2021/12/31 08:36:14;;;;;;;;;15.33;10.00;;;;;10.82;78.88;101797.41;5036855;28;45327;-52
2021/12/31 08:38:39;;;;;;;;;13.33;9.33;;;;;10.84;79.28;101794.66;5036413;28;46969;-50
2021/12/31 08:41:05;;;;;;;;;11.67;8.33;;;;;10.86;79.34;101784.72;5036597;28;45362;-53
2021/12/31 08:43:30;;;;;;;;;13.00;10.00;;;;;10.86;78.93;101792.69;5036769;28;45330;-52
2021/12/31 08:45:56;;;;;;;;;10.00;10.00;;;;;10.90;78.63;101804.81;5036768;28;45337;-50
2021/12/31 08:48:21;;;;;;;;;16.00;11.67;;;;;10.92;78.43;101797.56;5036370;28;45387;-52
2021/12/31 08:50:47;;;;;;;;;17.67;11.33;;;;;10.95;78.25;101791.97;5018473;28;45371;-53
2021/12/31 08:53:12;;;;;;;;;24.00;15.67;;;;;10.88;77.89;101785.47;5036532;28;45235;-53
2021/12/31 08:55:38;;;;;;;;;12.33;9.00;;;;;11.01;79.02;101794.16;5036447;28;45325;-51
2021/12/31 08:58:04;;;;;;;;;13.33;11.00;;;;;11.08;77.97;101790.03;5036143;28;45426;-51
2021/12/31 09:00:30;;;;;;;;;12.33;11.33;;;;;11.22;77.87;101789.72;5036255;28;45401;-53
2021/12/31 09:02:55;;;;;;;;;14.67;14.67;;;;;11.28;76.84;101790.19;5036284;28;45381;-52
2021/12/31 09:05:22;;;;;;;;;13.33;11.00;;;;;11.34;77.53;101795.03;5036478;28;45303;-54
2021/12/31 09:07:49;;;;;;;;;16.67;15.00;;;;;11.34;77.05;101797.69;5035948;28;46354;-52
2021/12/31 09:10:16;;;;;;;;;11.33;6.00;;;;;11.29;77.57;101779.41;5038965;28;45310;-53
2021/12/31 09:12:44;;;;;;;;;19.67;13.00;;;;;11.32;77.44;101787.16;5039754;28;45306;-51
2021/12/31 09:15:10;;;;;;;;;18.67;11.67;;;;;11.30;77.22;101796.25;5039487;28;45353;-55
2021/12/31 09:17:36;;;;;;;;;14.67;14.33;;;;;11.30;77.76;101818.41;5039290;28;46185;-54
2021/12/31 09:20:04;;;;;;;;;18.00;14.00;;;;;11.27;77.39;101844.44;5039012;28;45289;-52
2021/12/31 09:22:29;;;;;;;;;18.33;12.67;;;;;11.37;77.68;101845.38;5039327;28;46160;-55
2021/12/31 09:24:55;;;;;;;;;12.00;7.67;;;;;11.47;77.24;101849.00;5021448;28;45394;-53
2021/12/31 09:27:21;;;;;;;;;13.67;13.00;;;;;11.51;76.97;101822.97;5039088;28;46223;-52
2021/12/31 09:29:46;;;;;;;;;15.00;11.67;;;;;11.51;77.79;101796.31;5039230;28;45434;-50
2021/12/31 09:32:11;;;;;;;;;18.00;13.00;;;;;11.42;76.43;101822.75;5039389;28;45254;-52
2021/12/31 09:34:37;;;;;;;;;12.00;11.67;;;;;11.38;76.95;101833.78;5039017;28;45310;-53
2021/12/31 09:37:02;;;;;;;;;14.33;11.00;;;;;11.41;77.00;101828.19;5039252;28;46062;-53
2021/12/31 09:39:28;;;;;;;;;13.00;12.00;;;;;11.55;76.54;101827.06;5039135;28;45247;-53
2021/12/31 09:41:53;;;;;;;;;14.33;13.00;;;;;11.71;76.33;101823.00;5039281;28;45312;-51
2021/12/31 09:44:22;;;;;;;;;13.00;9.67;;;;;11.86;76.31;101812.91;5039207;28;45299;-50
2021/12/31 09:46:47;;;;;;;;;21.67;15.33;;;;;13.44;71.27;101825.81;5038460;28;45600;-50
2021/12/31 09:49:12;;;;;;;;;14.67;13.33;;;;;15.63;65.30;101827.25;5038985;28;45400;-52
2021/12/31 09:51:42;;;;;;;;;19.33;16.67;;;;;17.07;60.03;101812.47;5038943;28;45512;-53
2021/12/31 09:54:09;;;;;;;;;16.67;14.00;;;;;18.14;60.47;101843.88;5039122;28;45258;-53
2021/12/31 09:56:39;;;;;;;;;14.33;14.00;;;;;19.49;54.70;101844.78;5038420;28;46166;-52
2021/12/31 09:59:05;;;;;;;;;14.00;12.00;;;;;19.77;52.13;101855.09;5038834;28;45334;-52
2021/12/31 10:01:30;;;;;;;;;12.33;12.33;;;;;20.95;50.57;101858.00;5038863;28;45381;-52
2021/12/31 10:03:58;;;;;;;;;15.33;11.67;;;;;22.07;47.22;101866.53;5038797;28;45358;-52
2021/12/31 10:06:24;;;;;;;;;13.67;11.00;;;;;22.90;45.59;101870.31;5038424;28;46128;-54
2021/12/31 10:08:50;;;;;;;;;14.33;11.33;;;;;23.46;43.70;101865.72;5038626;28;45259;-52
2021/12/31 10:11:17;;;;;;;;;11.00;11.00;;;;;23.71;44.83;101864.13;5038806;28;45227;-53
2021/12/31 10:14:05;;;;;;;;;10.75;9.50;;;;;24.28;46.35;101867.31;5038869;28;45370;-53
2021/12/31 10:16:33;;;;;;;;;14.25;11.50;;;;;24.74;39.45;101866.44;5038316;28;46295;-51
2021/12/31 10:19:15;;;;;;;;;12.75;11.75;;;;;25.15;40.25;101860.66;5038227;28;45310;-52
2021/12/31 10:21:43;;;;;;;;;13.75;11.00;;;;;25.37;38.60;101850.31;5037546;28;45472;-53
2021/12/31 10:24:35;;;;;;;;;10.00;7.75;;;;;25.31;37.97;101865.59;5038545;28;45381;-53
2021/12/31 10:27:09;;;;;;;;;13.80;11.60;;;;;25.55;37.93;101871.34;5038297;28;46200;-53
2021/12/31 10:29:51;;;;;;;;;10.00;10.00;;;;;25.90;38.54;101873.66;5038253;28;45388;-54
2021/12/31 10:32:17;;;;;;;;;12.20;10.00;;;;;25.97;38.32;101869.84;5038425;28;45302;-52
2021/12/31 10:34:42;;;;;;;;;13.75;9.75;;;;;26.00;38.45;101868.53;5038519;28;45513;-53
2021/12/31 10:37:23;;;;;;;;;12.25;10.00;;;;;25.39;37.69;101878.13;5038135;28;46003;-52
2021/12/31 10:40:00;;;;;;;;;23.75;21.50;;;;;25.37;37.67;101891.16;5038151;28;45334;-53
2021/12/31 10:42:31;;;;;;;;;10.20;8.60;;;;;25.09;38.76;101896.91;5038196;28;45342;-54
2021/12/31 10:45:01;;;;;;;;;13.40;11.80;;;;;23.81;40.37;101907.22;5038333;28;45263;-52
2021/12/31 10:47:37;;;;;;;;;12.40;12.40;;;;;22.93;42.68;101928.78;5037853;28;47243;-52
2021/12/31 10:50:02;;;;;;;;;13.40;12.20;;;;;22.67;43.66;101938.38;5037996;28;45722;-53
2021/12/31 10:52:40;;;;;;;;;13.75;11.00;;;;;23.25;43.57;101948.97;5038407;28;45341;-51
2021/12/31 10:55:19;;;;;;;;;14.40;12.20;;;;;23.87;41.40;101939.84;5038096;28;45436;-53
2021/12/31 10:57:47;;;;;;;;;12.40;11.20;;;;;23.73;41.68;101937.31;5037851;28;46409;-50
2021/12/31 11:00:14;;;;;;;;;12.80;11.00;;;;;23.43;41.73;101926.72;5037837;28;45483;-53
2021/12/31 11:02:40;;;;;;;;;11.20;11.00;;;;;24.18;41.58;101919.38;5037950;28;45470;-53
2021/12/31 11:05:06;;;;;;;;;8.75;8.75;;;;;25.04;40.66;101916.59;5037931;28;45393;-51
2021/12/31 11:07:32;;;;;;;;;11.20;9.60;;;;;24.50;39.91;101909.59;5019733;28;47636;-52
2021/12/31 11:09:59;;;;;;;;;11.50;11.25;;;;;24.59;40.18;101916.47;5037586;28;45261;-49
2021/12/31 11:12:26;;;;;;;;;8.80;7.20;;;;;25.07;39.57;101908.00;5037855;28;45338;-50